PWSweather.com
Personal Weather Stations
Station Observations
IESRVJEREZ
Ies Fco. Romero Vargas, Jerez De La FronteraES 11408

Ies Fco. Romero VargasJerez De La FronteraES 11408

Lat: 36.67203, Lon: -6.129915

Elevation: 98

Station Type: FWS 20

http://www.iesromerovargas.net/estacion_meteorologica/Cumulus/web/

High Low Average
Temperature 62.4°F16.9°F 52.3°F11.3°F 58.0°F14.4°F
Dew Point 50.9°F10.5°F 41.2°F5.1°F 45.5°F7.5°F
Winds 13.0 mph WNW20.9 mph WNW 0.7 mph 1.1 mph 6.1 mph 9.8 mph
Wind Gusts 22.1 mph35.6 mph 3.8 mph6.1 mph 13.0 mph20.9 mph
Humidity 90% 47% 65%
Pressure 30.12 in1020.00 in 30.01 in1016.30 in -
Precipitation 0.20 in5.10 in - -
Hour Temp Dew Point Humidity Winds Wind Gusts Pressure Precip Precip Rate Daily Precip Total
01:30 PM 61.7°F16.5°C 41.3°F5.2°C 47% 7.6 mph WNW12.2 kmh WNW 13.0 mph20.9 kmh 30.12 in1020.0 mb 0.00 in0.0 mm 0.00 in0.0 mm 0.00 in0.0 mm
01:45 PM 61.5°F16.4°C 41.7°F5.4°C 48% 6.0 mph WNW9.7 kmh WNW 11.4 mph18.3 kmh 30.11 in1019.6 mb 0.00 in0.0 mm 0.00 in0.0 mm 0.00 in0.0 mm
02:00 PM 59.9°F15.5°C 41.2°F5.1°C 50% 5.4 mph W8.7 kmh W 13.0 mph20.9 kmh 30.11 in1019.6 mb 0.00 in0.0 mm 0.00 in0.0 mm 0.00 in0.0 mm
02:15 PM 61.5°F16.4°C 42.7°F5.9°C 50% 3.1 mph W5.0 kmh W 9.2 mph14.8 kmh 30.11 in1019.6 mb 0.00 in0.0 mm 0.00 in0.0 mm 0.00 in0.0 mm
02:30 PM 61.0°F16.1°C 41.7°F5.4°C 49% 6.0 mph NW9.7 kmh NW 13.0 mph20.9 kmh 30.09 in1019.0 mb 0.00 in0.0 mm 0.00 in0.0 mm 0.00 in0.0 mm
02:45 PM 61.0°F16.1°C 42.2°F5.7°C 50% 6.0 mph WNW9.7 kmh WNW 13.0 mph20.9 kmh 30.09 in1019.0 mb 0.00 in0.0 mm 0.00 in0.0 mm 0.00 in0.0 mm
03:00 PM 59.9°F15.5°C 42.2°F5.7°C 52% 9.2 mph W14.8 kmh W 11.4 mph18.3 kmh 30.08 in1018.6 mb 0.00 in0.0 mm 0.00 in0.0 mm 0.00 in0.0 mm
03:15 PM 59.9°F15.5°C 43.2°F6.2°C 54% 4.5 mph WNW7.2 kmh WNW 15.9 mph25.6 kmh 30.08 in1018.6 mb 0.00 in0.0 mm 0.00 in0.0 mm 0.00 in0.0 mm
03:30 PM 60.8°F16.0°C 44.1°F6.7°C 54% 4.5 mph W7.2 kmh W 10.7 mph17.2 kmh 30.07 in1018.3 mb 0.00 in0.0 mm 0.00 in0.0 mm 0.00 in0.0 mm
03:45 PM 61.9°F16.6°C 44.6°F7.0°C 53% 6.0 mph W9.7 kmh W 15.2 mph24.5 kmh 30.05 in1017.6 mb 0.00 in0.0 mm 0.00 in0.0 mm 0.00 in0.0 mm
04:00 PM 62.1°F16.7°C 44.2°F6.8°C 52% 8.3 mph WNW13.4 kmh WNW 12.1 mph19.5 kmh 30.04 in1017.3 mb 0.00 in0.0 mm 0.00 in0.0 mm 0.00 in0.0 mm
04:15 PM 62.2°F16.8°C 44.4°F6.9°C 52% 7.6 mph WNW12.2 kmh WNW 15.2 mph24.5 kmh 30.04 in1017.3 mb 0.00 in0.0 mm 0.00 in0.0 mm 0.00 in0.0 mm
04:30 PM 61.5°F16.4°C 45.2°F7.3°C 55% 9.2 mph NW14.8 kmh NW 14.5 mph23.3 kmh 30.03 in1016.9 mb 0.00 in0.0 mm 0.00 in0.0 mm 0.00 in0.0 mm
04:45 PM 61.0°F16.1°C 45.2°F7.3°C 56% 8.3 mph WNW13.4 kmh WNW 14.5 mph23.3 kmh 30.03 in1016.9 mb 0.00 in0.0 mm 0.00 in0.0 mm 0.00 in0.0 mm
05:00 PM 61.3°F16.3°C 44.1°F6.7°C 53% 10.7 mph WNW17.2 kmh WNW 17.4 mph28.0 kmh 30.02 in1016.6 mb 0.00 in0.0 mm 0.00 in0.0 mm 0.00 in0.0 mm
05:15 PM 61.7°F16.5°C 42.9°F6.1°C 50% 10.7 mph WNW17.2 kmh WNW 15.9 mph25.6 kmh 30.02 in1016.6 mb 0.00 in0.0 mm 0.00 in0.0 mm 0.00 in0.0 mm
05:30 PM 62.4°F16.9°C 43.6°F6.4°C 50% 9.2 mph WNW14.8 kmh WNW 20.6 mph33.2 kmh 30.01 in1016.3 mb 0.00 in0.0 mm 0.00 in0.0 mm 0.00 in0.0 mm
05:45 PM 62.2°F16.8°C 43.4°F6.3°C 50% 11.4 mph WNW18.3 kmh WNW 19.7 mph31.7 kmh 30.01 in1016.3 mb 0.00 in0.0 mm 0.00 in0.0 mm 0.00 in0.0 mm
06:00 PM 62.2°F16.8°C 43.4°F6.3°C 50% 10.7 mph W17.2 kmh W 19.0 mph30.6 kmh 30.01 in1016.3 mb 0.00 in0.0 mm 0.00 in0.0 mm 0.00 in0.0 mm
06:15 PM 61.0°F16.1°C 42.7°F5.9°C 51% 11.4 mph WNW18.3 kmh WNW 21.3 mph34.3 kmh 30.01 in1016.3 mb 0.00 in0.0 mm 0.00 in0.0 mm 0.00 in0.0 mm
06:30 PM 60.1°F15.6°C 44.3°F6.8°C 56% 7.6 mph WNW12.2 kmh WNW 16.8 mph27.0 kmh 30.02 in1016.6 mb 0.00 in0.0 mm 0.00 in0.0 mm 0.00 in0.0 mm
06:45 PM 59.5°F15.3°C 45.7°F7.6°C 60% 13.0 mph WNW20.9 kmh WNW 19.0 mph30.6 kmh 30.01 in1016.3 mb 0.00 in0.0 mm 0.00 in0.0 mm 0.00 in0.0 mm
07:00 PM 59.5°F15.3°C 46.1°F7.8°C 61% 5.4 mph WNW8.7 kmh WNW 19.0 mph30.6 kmh 30.01 in1016.3 mb 0.00 in0.0 mm 0.00 in0.0 mm 0.00 in0.0 mm
07:15 PM 58.5°F14.7°C 45.5°F7.5°C 62% 7.6 mph NW12.2 kmh NW 15.9 mph25.6 kmh 30.01 in1016.3 mb 0.00 in0.0 mm 0.00 in0.0 mm 0.00 in0.0 mm
07:30 PM 58.5°F14.7°C 47.2°F8.4°C 66% 7.6 mph WNW12.2 kmh WNW 14.5 mph23.3 kmh 30.01 in1016.3 mb 0.00 in0.0 mm 0.00 in0.0 mm 0.00 in0.0 mm
07:45 PM 55.0°F12.8°C 50.6°F10.3°C 85% 6.9 mph WNW11.1 kmh WNW 11.4 mph18.3 kmh 30.01 in1016.3 mb 0.04 in1.0 mm 0.16 in4.1 mm 0.04 in1.0 mm
08:00 PM 54.7°F12.6°C 50.9°F10.5°C 87% 4.5 mph W7.2 kmh W 22.1 mph35.6 kmh 30.02 in1016.6 mb 0.04 in1.0 mm 0.00 in0.0 mm 0.04 in1.0 mm
08:15 PM 54.3°F12.4°C 49.9°F9.9°C 85% 6.0 mph NNW9.7 kmh NNW 10.7 mph17.2 kmh 30.02 in1016.6 mb 0.04 in1.0 mm 0.00 in0.0 mm 0.04 in1.0 mm
08:30 PM 53.6°F12.0°C 49.2°F9.6°C 85% 6.9 mph NNW11.1 kmh NNW 13.6 mph21.9 kmh 30.03 in1016.9 mb 0.04 in1.0 mm 0.00 in0.0 mm 0.04 in1.0 mm
08:45 PM 52.5°F11.4°C 49.4°F9.7°C 89% 1.6 mph W2.6 kmh W 13.6 mph21.9 kmh 30.03 in1016.9 mb 0.01 in0.3 mm 0.00 in0.0 mm 0.05 in1.3 mm
09:00 PM 52.3°F11.3°C 49.5°F9.7°C 90% 1.6 mph NW2.6 kmh NW 6.0 mph9.7 kmh 30.03 in1016.9 mb 0.01 in0.3 mm 0.00 in0.0 mm 0.05 in1.3 mm
09:15 PM 52.5°F11.4°C 49.7°F9.8°C 90% 0.7 mph NW1.1 kmh NW 4.5 mph7.2 kmh 30.03 in1016.9 mb 0.01 in0.3 mm 0.00 in0.0 mm 0.05 in1.3 mm
09:30 PM 52.9°F11.6°C 49.7°F9.8°C 89% 2.2 mph WNW3.5 kmh WNW 3.8 mph6.1 kmh 30.04 in1017.3 mb 0.01 in0.3 mm 0.00 in0.0 mm 0.05 in1.3 mm
09:45 PM 53.2°F11.8°C 50.1°F10.1°C 89% 2.2 mph W3.5 kmh W 5.4 mph8.7 kmh 30.04 in1017.3 mb 0.00 in0.0 mm 0.00 in0.0 mm 0.05 in1.3 mm
10:00 PM 53.6°F12.0°C 50.4°F10.2°C 89% 3.8 mph W6.1 kmh W 6.9 mph11.1 kmh 30.04 in1017.3 mb 0.00 in0.0 mm 0.00 in0.0 mm 0.05 in1.3 mm
10:15 PM 53.8°F12.1°C 47.8°F8.8°C 80% 3.8 mph WNW6.1 kmh WNW 10.7 mph17.2 kmh 30.04 in1017.3 mb 0.00 in0.0 mm 0.00 in0.0 mm 0.05 in1.3 mm
10:30 PM 54.1°F12.3°C 45.7°F7.6°C 73% 3.1 mph WNW5.0 kmh WNW 6.9 mph11.1 kmh 30.04 in1017.3 mb 0.00 in0.0 mm 0.00 in0.0 mm 0.05 in1.3 mm
10:45 PM 54.1°F12.3°C 45.3°F7.4°C 72% 5.4 mph NW8.7 kmh NW 10.7 mph17.2 kmh 30.04 in1017.3 mb 0.00 in0.0 mm 0.00 in0.0 mm 0.05 in1.3 mm
11:00 PM 54.0°F12.2°C 45.1°F7.3°C 72% 3.1 mph NW5.0 kmh NW 9.2 mph14.8 kmh 30.04 in1017.3 mb 0.00 in0.0 mm 0.00 in0.0 mm 0.05 in1.3 mm
11:15 PM 54.0°F12.2°C 45.1°F7.3°C 72% 3.1 mph NW5.0 kmh NW 9.2 mph14.8 kmh 30.04 in1017.3 mb 0.00 in0.0 mm 0.00 in0.0 mm 0.05 in1.3 mm
11:30 PM 53.8°F12.1°C 44.6°F7.0°C 71% 3.8 mph NNW6.1 kmh NNW 11.4 mph18.3 kmh 30.04 in1017.3 mb 0.00 in0.0 mm 0.00 in0.0 mm 0.05 in1.3 mm
11:45 PM 53.4°F11.9°C 43.9°F6.6°C 70% 2.2 mph W3.5 kmh W 9.2 mph14.8 kmh 30.04 in1017.3 mb 0.00 in0.0 mm 0.00 in0.0 mm 0.05 in1.3 mm